Nypd 317 — WDI5352 — position and weather

sailwx.info

Track history (hours):
 
Tides and Currents Weather Stations Pressure Air Temp Water Temp Dewpoint Dewpoint Depression Visibility Wind Speed Wind Dir Waves Ship Positions

Nypd 317

Owner: New York City Police Department, Brooklyn, NY. More information available from US FCC via Universal Licensing System.

Last reported at 2017-Dec-15 03:41 UTC. Time now 2017-Dec-17 23:22 UTC.
Position N 40°39' W 074°02'.

Length 11 m; draft 1 m.

Type: Law enforcement. MMSI: 367707680.

Date/timePositionNaut miles runAvg speedWind from/ knotsBaromVisibWave heightAir tempDewpointWater temp
2017-Dec-15 03:41N 40°39' W 074°02'4 3.5
2017-Dec-15 02:30N 40°43' W 073°60'0 0.0
2017-Dec-15 01:00N 40°43' W 073°60'0 0.0
2017-Dec-15 00:30N 40°43' W 073°60'4 0.1
2017-Dec-13 03:08N 40°39' W 074°02'3 1.9
2017-Dec-13 01:23N 40°42' W 074°00'0 0.0
2017-Dec-13 01:00N 40°42' W 074°00'0 0.0
2017-Dec-13 00:30N 40°42' W 074°00'0 0.0
2017-Dec-12 23:59N 40°42' W 074°00'1 1.7
2017-Dec-12 23:30N 40°43' W 073°60'0 0.0
2017-Dec-12 23:00N 40°43' W 073°60'0 0.0
2017-Dec-12 22:30N 40°43' W 073°60'0 0.0
2017-Dec-12 22:00N 40°43' W 073°60'2 4.9
2017-Dec-12 21:31N 40°40' W 074°01'0 0.8
2017-Dec-12 21:01N 40°40' W 074°01'1 2.8
2017-Dec-12 20:30N 40°39' W 074°02'  
Track history (hours):
 
Tides and Currents Weather Stations Pressure Air Temp Water Temp Dewpoint Dewpoint Depression Visibility Wind Speed Wind Dir Waves Ship Positions

Nypd 317

Owner: New York City Police Department, Brooklyn, NY. More information available from US FCC via Universal Licensing System.

Last reported at 2017-Dec-15 03:41 UTC. Time now 2017-Dec-17 23:22 UTC.
Position N 40°39' W 074°02'.

Length 11 m; draft 1 m.

Type: Law enforcement. MMSI: 367707680.

Date/timePositionNaut miles runAvg speedWind from/ knotsBaromVisibWave heightAir tempDewpointWater temp
2017-Dec-15 03:41N 40°39' W 074°02'4 3.5
2017-Dec-15 02:30N 40°43' W 073°60'0 0.0
2017-Dec-15 01:00N 40°43' W 073°60'0 0.0
2017-Dec-15 00:30N 40°43' W 073°60'4 0.1
2017-Dec-13 03:08N 40°39' W 074°02'3 1.9
2017-Dec-13 01:23N 40°42' W 074°00'0 0.0
2017-Dec-13 01:00N 40°42' W 074°00'0 0.0
2017-Dec-13 00:30N 40°42' W 074°00'0 0.0
2017-Dec-12 23:59N 40°42' W 074°00'1 1.7
2017-Dec-12 23:30N 40°43' W 073°60'0 0.0
2017-Dec-12 23:00N 40°43' W 073°60'0 0.0
2017-Dec-12 22:30N 40°43' W 073°60'0 0.0
2017-Dec-12 22:00N 40°43' W 073°60'2 4.9
2017-Dec-12 21:31N 40°40' W 074°01'0 0.8
2017-Dec-12 21:01N 40°40' W 074°01'1 2.8
2017-Dec-12 20:30N 40°39' W 074°02'  

Dump ship's entire track history